Time;durP1;ratioP1;P1;durP2;ratioP2;P2;SDS_P1;SDS_P2;PMS_P1;PMS_P2;Temp;Humidity;BMP_temperature;BMP_pressure;BME280_temperature;BME280_humidity;BME280_pressure;Samples;Min_cycle;Max_cycle;Signal;HPM_P1;HPM_P2
2023/09/01 00:02:29;;;;;;;3.05;1.15;;;18.30;99.90;;;;;;4935940;29;20574;-93
2023/09/01 00:05:03;;;;;;;2.67;0.90;;;18.40;99.90;;;;;;4917129;29;20293;-93
2023/09/01 00:07:37;;;;;;;3.80;1.10;;;18.40;99.90;;;;;;4956003;28;20184;-93
2023/09/01 00:10:09;;;;;;;3.53;0.98;;;18.40;99.90;;;;;;4944936;29;20579;-93
2023/09/01 00:12:41;;;;;;;2.35;1.00;;;18.30;99.90;;;;;;4957431;29;20205;-93
2023/09/01 00:15:13;;;;;;;1.88;0.90;;;18.40;99.90;;;;;;4933175;29;20241;-92
2023/09/01 00:17:44;;;;;;;3.30;0.90;;;18.30;99.90;;;;;;4942309;29;20211;-92
2023/09/01 00:20:18;;;;;;;2.97;0.80;;;18.40;99.90;;;;;;4955738;29;20686;-92
2023/09/01 00:22:49;;;;;;;2.38;0.80;;;18.40;99.90;;;;;;4936609;29;20745;-94
2023/09/01 00:25:20;;;;;;;4.32;0.63;;;18.50;99.90;;;;;;4935572;29;20235;-94
2023/09/01 00:27:52;;;;;;;1.77;0.80;;;18.40;99.90;;;;;;4935386;29;20653;-91
2023/09/01 00:30:23;;;;;;;2.35;0.70;;;18.30;99.90;;;;;;4944580;29;20196;-91
2023/09/01 00:32:54;;;;;;;2.58;0.50;;;18.20;99.90;;;;;;4954922;29;20204;-92
2023/09/01 00:35:27;;;;;;;4.05;0.82;;;18.20;99.90;;;;;;4954131;28;20200;-90
2023/09/01 00:37:58;;;;;;;3.30;0.75;;;18.20;99.90;;;;;;4953025;29;20226;-92
2023/09/01 00:40:29;;;;;;;1.88;0.70;;;18.20;99.90;;;;;;4954180;29;20208;-91
2023/09/01 00:43:00;;;;;;;2.95;0.70;;;18.30;99.90;;;;;;4934300;29;20228;-91
2023/09/01 00:45:31;;;;;;;3.10;0.82;;;18.30;99.90;;;;;;4931666;29;20263;-93
2023/09/01 00:48:02;;;;;;;6.45;1.33;;;18.40;99.90;;;;;;4947693;29;20208;-90
2023/09/01 00:50:35;;;;;;;2.95;0.80;;;18.50;99.90;;;;;;4942999;29;20279;-91
2023/09/01 00:53:06;;;;;;;0.98;0.63;;;18.50;99.90;;;;;;4935082;29;20212;-93
2023/09/01 00:55:38;;;;;;;2.08;0.60;;;18.40;99.90;;;;;;4935431;29;20703;-92
2023/09/01 00:58:09;;;;;;;1.95;0.50;;;18.40;99.90;;;;;;4934783;29;20204;-91
2023/09/01 01:00:40;;;;;;;1.65;0.52;;;18.50;99.90;;;;;;4934846;29;20201;-93
2023/09/01 01:03:12;;;;;;;1.67;0.60;;;18.50;99.90;;;;;;4935317;29;20777;-92
2023/09/01 01:05:59;;;;;;;1.25;0.50;;;18.60;99.90;;;;;;4936001;29;20196;-91
2023/09/01 01:08:40;;;;;;;1.58;0.38;;;18.60;99.90;;;;;;4936042;29;20204;-90
2023/09/01 01:11:17;;;;;;;2.42;0.57;;;18.70;99.90;;;;;;4950954;28;20208;-91
2023/09/01 01:13:51;;;;;;;2.47;0.85;;;18.80;99.80;;;;;;4951319;29;20243;-90
2023/09/01 01:16:23;;;;;;;3.50;0.57;;;18.80;99.60;;;;;;4955866;29;20203;-92
2023/09/01 01:18:57;;;;;;;2.97;0.70;;;18.90;99.60;;;;;;4955909;29;20207;-91
2023/09/01 01:21:34;;;;;;;1.30;0.70;;;18.90;99.90;;;;;;4954605;29;20243;-90
2023/09/01 01:24:08;;;;;;;4.45;0.70;;;18.80;99.90;;;;;;4953731;29;20224;-90
2023/09/01 01:26:40;;;;;;;2.42;0.85;;;18.80;99.90;;;;;;4954772;29;20214;-91
2023/09/01 01:29:11;;;;;;;3.75;0.80;;;18.60;99.90;;;;;;4953973;29;20546;-90
2023/09/01 01:31:42;;;;;;;1.25;0.60;;;18.60;99.90;;;;;;4954855;29;20550;-91
2023/09/01 01:34:22;;;;;;;2.20;0.60;;;18.80;99.90;;;;;;4954286;28;20200;-91
2023/09/01 01:37:03;;;;;;;1.83;0.63;;;19.00;99.90;;;;;;4933577;29;20201;-91
2023/09/01 01:39:37;;;;;;;2.25;0.63;;;19.00;99.90;;;;;;4946783;29;20206;-91
2023/09/01 01:42:12;;;;;;;2.05;0.68;;;19.00;99.90;;;;;;4952676;29;20220;-91
2023/09/01 01:44:45;;;;;;;4.30;0.80;;;19.00;99.90;;;;;;4938881;29;20200;-91
2023/09/01 01:47:17;;;;;;;1.58;0.68;;;19.10;99.90;;;;;;4934169;29;20272;-90
2023/09/01 01:49:49;;;;;;;3.20;0.80;;;19.20;99.90;;;;;;4948195;28;20201;-93
2023/09/01 01:52:20;;;;;;;2.95;0.70;;;19.20;99.90;;;;;;4938747;29;20281;-91
2023/09/01 01:54:53;;;;;;;5.10;0.80;;;19.40;99.90;;;;;;4940910;29;20240;-90
2023/09/01 01:57:23;;;;;;;3.92;0.80;;;19.60;99.90;;;;;;4938381;29;20204;-90
2023/09/01 01:59:56;;;;;;;2.80;0.73;;;19.50;99.90;;;;;;4941196;29;20200;-89
2023/09/01 02:02:27;;;;;;;3.20;0.80;;;19.50;99.90;;;;;;4937465;29;20216;-90
2023/09/01 02:04:58;;;;;;;2.50;1.13;;;19.40;99.20;;;;;;4937372;29;20211;-89
2023/09/01 02:07:29;;;;;;;3.28;0.80;;;19.50;99.10;;;;;;4937185;29;20285;-89
2023/09/01 02:10:02;;;;;;;2.72;1.02;;;19.50;98.60;;;;;;4936640;29;20224;-90
2023/09/01 02:12:33;;;;;;;6.95;0.90;;;19.50;97.90;;;;;;4930591;29;20197;-90
2023/09/01 02:15:08;;;;;;;2.45;0.90;;;19.50;98.30;;;;;;4934955;28;20209;-89
2023/09/01 02:17:39;;;;;;;2.70;1.02;;;19.50;98.40;;;;;;4927972;29;20204;-90
2023/09/01 02:20:16;;;;;;;3.35;1.05;;;19.40;99.90;;;;;;4954432;29;20681;-90
2023/09/01 02:22:48;;;;;;;4.85;1.00;;;19.30;99.90;;;;;;4955994;29;20274;-90
2023/09/01 02:25:21;;;;;;;2.58;0.90;;;19.30;98.30;;;;;;4956552;29;20215;-90
2023/09/01 02:27:52;;;;;;;3.17;0.70;;;19.10;96.90;;;;;;4956450;29;20188;-90
2023/09/01 02:30:23;;;;;;;6.82;1.00;;;19.10;98.40;;;;;;4938464;29;20211;-90
2023/09/01 02:32:55;;;;;;;3.55;1.00;;;19.10;97.70;;;;;;4924224;29;20660;-88
2023/09/01 02:35:27;;;;;;;1.88;0.82;;;19.30;98.30;;;;;;4941034;29;20668;-88
2023/09/01 02:37:59;;;;;;;4.43;1.02;;;19.50;96.70;;;;;;4936263;29;20201;-92
2023/09/01 02:40:33;;;;;;;3.85;1.05;;;19.60;96.60;;;;;;4956934;29;20223;-89
2023/09/01 02:43:04;;;;;;;3.78;1.00;;;19.60;96.20;;;;;;4960142;29;20286;-89
2023/09/01 02:45:35;;;;;;;3.45;0.90;;;19.60;95.00;;;;;;4953927;29;20261;-89
2023/09/01 02:48:07;;;;;;;2.83;0.90;;;19.60;95.20;;;;;;4936999;29;20209;-93
2023/09/01 02:50:38;;;;;;;3.65;0.90;;;19.70;95.40;;;;;;4941294;29;20219;-88
2023/09/01 02:53:09;;;;;;;4.10;0.90;;;19.70;94.10;;;;;;4938423;29;20209;-90
2023/09/01 02:55:44;;;;;;;3.28;0.90;;;19.80;95.20;;;;;;4950169;29;20735;-91
2023/09/01 02:58:15;;;;;;;3.53;1.02;;;19.80;95.00;;;;;;4961831;29;20270;-90
2023/09/01 03:00:46;;;;;;;2.42;1.05;;;19.90;94.70;;;;;;4959688;28;20227;-90
2023/09/01 03:03:18;;;;;;;2.75;1.05;;;20.00;94.30;;;;;;4959796;29;20226;-89
2023/09/01 03:05:50;;;;;;;4.72;1.30;;;19.90;94.60;;;;;;4959831;29;20208;-91
2023/09/01 03:08:23;;;;;;;2.25;1.00;;;20.00;94.80;;;;;;4948246;29;20224;-87
2023/09/01 03:10:57;;;;;;;4.07;0.95;;;20.10;95.30;;;;;;4944681;29;20248;-88
2023/09/01 03:13:29;;;;;;;3.55;1.23;;;20.00;93.90;;;;;;4938304;29;20528;-89
2023/09/01 03:16:00;;;;;;;4.03;1.30;;;20.00;94.70;;;;;;4940255;29;20185;-88
2023/09/01 03:18:31;;;;;;;3.40;1.10;;;19.90;94.60;;;;;;4953480;29;20287;-89
2023/09/01 03:21:13;;;;;;;3.08;1.00;;;19.60;93.80;;;;;;4937624;29;20204;-90
2023/09/01 03:23:44;;;;;;;4.07;0.90;;;19.70;94.60;;;;;;4937443;29;20307;-90
2023/09/01 03:26:17;;;;;;;3.25;1.00;;;19.70;93.20;;;;;;4941918;29;20224;-90
2023/09/01 03:28:48;;;;;;;3.20;0.98;;;19.70;92.90;;;;;;4940733;29;20656;-90
2023/09/01 03:31:19;;;;;;;2.55;0.93;;;19.70;93.50;;;;;;4938564;29;20208;-90
2023/09/01 03:33:51;;;;;;;5.95;0.85;;;19.60;92.10;;;;;;4948894;28;20199;-90
2023/09/01 03:36:22;;;;;;;6.07;1.10;;;19.50;92.60;;;;;;4973590;28;20207;-91
2023/09/01 03:38:53;;;;;;;2.88;0.90;;;19.60;93.30;;;;;;4940316;29;20284;-91
2023/09/01 03:41:34;;;;;;;6.90;1.20;;;19.80;92.90;;;;;;4936465;29;20207;-91
2023/09/01 03:44:05;;;;;;;3.33;0.93;;;19.60;93.60;;;;;;4943437;29;20224;-89
2023/09/01 03:46:36;;;;;;;5.35;1.02;;;19.60;92.60;;;;;;4937451;29;20204;-89
2023/09/01 03:49:07;;;;;;;10.00;1.42;;;19.40;93.50;;;;;;4937243;29;20205;-89
2023/09/01 03:51:39;;;;;;;6.18;1.25;;;19.40;92.30;;;;;;4937350;29;20211;-90
2023/09/01 03:54:10;;;;;;;3.70;1.50;;;19.40;91.40;;;;;;4936247;28;20240;-91
2023/09/01 03:56:44;;;;;;;6.00;1.45;;;19.30;92.30;;;;;;4936827;29;20205;-91
2023/09/01 03:59:15;;;;;;;3.30;1.20;;;19.20;93.80;;;;;;4936064;29;20201;-91
2023/09/01 04:01:46;;;;;;;4.03;1.38;;;19.10;93.60;;;;;;4935680;29;20231;-91
2023/09/01 04:04:17;;;;;;;6.78;1.08;;;19.10;93.90;;;;;;4935000;29;20300;-90
2023/09/01 04:06:49;;;;;;;6.72;1.50;;;19.10;93.50;;;;;;4935393;29;20209;-90
2023/09/01 04:09:20;;;;;;;6.03;1.40;;;19.10;94.50;;;;;;4934988;29;20223;-90
2023/09/01 04:11:55;;;;;;;7.25;1.40;;;19.00;94.60;;;;;;4935629;29;20205;-91
2023/09/01 04:14:26;;;;;;;4.15;1.30;;;19.00;94.30;;;;;;4935391;29;20277;-90
2023/09/01 04:16:57;;;;;;;6.30;1.20;;;18.90;94.50;;;;;;4934893;29;20211;-91
2023/09/01 04:19:28;;;;;;;4.40;1.10;;;18.90;95.10;;;;;;4935293;29;20545;-90
2023/09/01 04:22:00;;;;;;;5.78;1.10;;;18.80;94.30;;;;;;4949901;29;20181;-90
2023/09/01 04:24:31;;;;;;;4.53;1.40;;;18.70;94.60;;;;;;4934608;29;20208;-91
2023/09/01 04:27:04;;;;;;;7.13;1.60;;;18.70;94.80;;;;;;4935450;29;20569;-90
2023/09/01 04:29:36;;;;;;;7.00;1.63;;;18.60;94.20;;;;;;4949708;29;20268;-90
2023/09/01 04:32:08;;;;;;;9.60;1.60;;;18.50;95.30;;;;;;4935514;29;20209;-91
2023/09/01 04:34:39;;;;;;;9.55;1.58;;;18.50;97.60;;;;;;4920822;29;20200;-89
2023/09/01 04:37:10;;;;;;;9.80;1.55;;;18.50;98.70;;;;;;4932956;29;20189;-89
2023/09/01 04:39:43;;;;;;;6.90;1.55;;;18.50;98.80;;;;;;4934462;29;20203;-90
2023/09/01 04:42:16;;;;;;;8.27;1.60;;;18.40;99.90;;;;;;4934946;29;20199;-89
2023/09/01 04:44:47;;;;;;;11.32;1.70;;;18.50;99.90;;;;;;4944732;29;20200;-90
2023/09/01 04:47:17;;;;;;;5.45;1.55;;;18.40;99.90;;;;;;4942145;29;20200;-91
2023/09/01 04:49:48;;;;;;;7.20;1.60;;;18.40;99.90;;;;;;4934790;29;20565;-89
2023/09/01 04:52:20;;;;;;;7.35;1.40;;;18.30;99.90;;;;;;4934500;29;20192;-87
2023/09/01 04:54:51;;;;;;;9.73;1.83;;;18.30;99.90;;;;;;4934436;29;20233;-92
2023/09/01 04:57:23;;;;;;;6.75;1.20;;;18.30;99.90;;;;;;4936323;29;20200;-91
2023/09/01 04:59:54;;;;;;;6.75;1.30;;;18.40;99.90;;;;;;4936687;29;20201;-88
2023/09/01 05:02:25;;;;;;;5.47;1.25;;;18.40;99.90;;;;;;4949578;29;20230;-91
2023/09/01 05:04:57;;;;;;;5.20;1.48;;;18.40;99.90;;;;;;4915753;29;20209;-90
2023/09/01 05:07:28;;;;;;;5.15;1.40;;;18.30;99.50;;;;;;4928378;29;20209;-89
2023/09/01 05:09:58;;;;;;;3.60;1.00;;;18.30;99.90;;;;;;4935313;29;20205;-89
2023/09/01 05:12:33;;;;;;;4.55;1.15;;;18.40;99.90;;;;;;4910667;29;20212;-88
2023/09/01 05:15:04;;;;;;;8.98;1.35;;;18.40;99.90;;;;;;4935764;29;20191;-89
2023/09/01 05:17:35;;;;;;;6.35;1.70;;;18.30;99.80;;;;;;4936841;29;20209;-89
2023/09/01 05:20:07;;;;;;;10.05;1.40;;;18.40;99.90;;;;;;4936404;29;20222;-88
2023/09/01 05:22:38;;;;;;;6.50;1.27;;;18.40;99.90;;;;;;4940959;28;20719;-89
2023/09/01 05:25:10;;;;;;;7.68;1.50;;;18.40;99.90;;;;;;4950993;28;20211;-89
2023/09/01 05:27:44;;;;;;;6.30;1.67;;;18.30;99.90;;;;;;4939984;29;20572;-88
2023/09/01 05:30:15;;;;;;;11.85;1.90;;;18.30;99.90;;;;;;4943890;29;20205;-88
2023/09/01 05:32:47;;;;;;;7.20;1.80;;;18.20;99.90;;;;;;4958693;29;20191;-89
2023/09/01 05:35:18;;;;;;;9.18;1.70;;;18.20;99.90;;;;;;4958226;28;20200;-88
2023/09/01 05:37:49;;;;;;;10.90;1.60;;;18.10;99.90;;;;;;4957010;29;20208;-89
2023/09/01 05:40:20;;;;;;;9.68;1.85;;;18.20;99.90;;;;;;4956446;29;20196;-89
2023/09/01 05:42:56;;;;;;;12.30;2.08;;;18.10;99.90;;;;;;4945663;29;20586;-89
2023/09/01 05:45:27;;;;;;;11.45;1.88;;;18.20;99.90;;;;;;4920160;29;20201;-88
2023/09/01 05:48:01;;;;;;;7.70;1.88;;;18.10;99.90;;;;;;4951429;29;20259;-88
2023/09/01 05:50:33;;;;;;;6.75;1.50;;;18.00;99.90;;;;;;4961345;29;20212;-87
2023/09/01 05:53:04;;;;;;;7.35;1.65;;;17.90;99.90;;;;;;4951547;29;20208;-87
2023/09/01 05:55:42;;;;;;;9.07;1.98;;;17.80;99.90;;;;;;4963903;28;20315;-88
2023/09/01 05:58:18;;;;;;;9.50;1.58;;;18.00;99.90;;;;;;4952573;29;20281;-86
2023/09/01 06:00:49;;;;;;;7.65;1.58;;;18.20;99.90;;;;;;4941511;29;20652;-88
2023/09/01 06:03:20;;;;;;;9.88;1.75;;;18.20;99.90;;;;;;4944260;29;20666;-87
2023/09/01 06:05:51;;;;;;;6.10;1.77;;;18.20;99.90;;;;;;4942886;29;20690;-87
2023/09/01 06:08:22;;;;;;;5.28;0.98;;;18.30;99.90;;;;;;4937180;29;20201;-87
2023/09/01 06:10:53;;;;;;;5.10;1.02;;;18.50;99.90;;;;;;4951317;29;20212;-88
2023/09/01 06:13:27;;;;;;;5.60;1.17;;;18.50;99.90;;;;;;4946421;29;20212;-88
2023/09/01 06:18:42;;;;;;;4.32;0.98;;;18.60;99.50;;;;;;4959700;29;20219;-88
2023/09/01 06:21:15;;;;;;;10.80;1.50;;;18.80;99.20;;;;;;4952674;29;20203;-85
2023/09/01 06:23:47;;;;;;;5.32;1.02;;;18.90;99.30;;;;;;4963092;28;20269;-88
2023/09/01 06:26:19;;;;;;;8.88;1.52;;;18.80;99.90;;;;;;4961042;29;20188;-85
2023/09/01 06:28:53;;;;;;;8.95;1.60;;;18.90;99.90;;;;;;4948385;28;20205;-87
2023/09/01 06:31:23;;;;;;;7.63;1.90;;;18.90;99.90;;;;;;4949408;29;20204;-86
2023/09/01 06:33:54;;;;;;;5.63;1.40;;;19.10;99.90;;;;;;4941377;28;20203;-86
2023/09/01 06:36:25;;;;;;;9.13;1.60;;;19.10;99.90;;;;;;4944607;29;20211;-87
2023/09/01 06:38:57;;;;;;;7.18;1.55;;;19.00;99.90;;;;;;4939861;29;20205;-86
2023/09/01 06:41:27;;;;;;;9.18;1.77;;;18.80;99.90;;;;;;4939061;29;20220;-87
2023/09/01 06:44:00;;;;;;;9.10;1.80;;;18.70;99.90;;;;;;4952732;29;20228;-87
2023/09/01 06:46:31;;;;;;;8.20;1.90;;;18.60;99.90;;;;;;4949654;29;20260;-87
2023/09/01 06:49:02;;;;;;;6.95;1.40;;;18.30;99.90;;;;;;4955026;29;20656;-87
2023/09/01 06:51:33;;;;;;;7.40;1.40;;;18.30;99.90;;;;;;4948920;29;20205;-88
2023/09/01 06:54:04;;;;;;;6.15;1.27;;;18.20;99.90;;;;;;4936444;29;20236;-88
2023/09/01 06:56:35;;;;;;;9.80;1.40;;;18.00;99.90;;;;;;4954168;28;20663;-88
2023/09/01 06:59:07;;;;;;;9.15;1.75;;;17.90;99.90;;;;;;4975874;28;20191;-86
2023/09/01 07:01:38;;;;;;;5.00;1.40;;;17.90;99.90;;;;;;4944130;29;20687;-87
2023/09/01 07:04:09;;;;;;;5.93;1.33;;;17.80;99.90;;;;;;4937590;29;20223;-88
2023/09/01 07:06:41;;;;;;;10.63;2.10;;;17.70;99.90;;;;;;4940672;29;20215;-88
2023/09/01 07:09:12;;;;;;;6.13;1.58;;;17.60;99.90;;;;;;4957948;29;20275;-89
2023/09/01 07:11:43;;;;;;;7.53;1.63;;;17.60;99.90;;;;;;4956424;29;20672;-89
2023/09/01 07:14:17;;;;;;;6.05;1.73;;;17.60;99.90;;;;;;4955848;29;20219;-92
2023/09/01 07:16:48;;;;;;;9.75;2.13;;;17.40;99.90;;;;;;4956297;29;20195;-91
2023/09/01 07:19:19;;;;;;;8.60;1.70;;;17.30;99.90;;;;;;4956174;29;20208;-93
2023/09/01 07:21:50;;;;;;;9.15;1.92;;;17.20;99.90;;;;;;4958286;29;20289;-92
2023/09/01 07:24:21;;;;;;;5.72;1.30;;;17.20;99.90;;;;;;4956032;29;20717;-90
2023/09/01 07:26:52;;;;;;;4.82;1.52;;;17.10;99.90;;;;;;4956610;29;20664;-92
2023/09/01 07:29:25;;;;;;;6.63;1.52;;;17.10;99.90;;;;;;4955794;29;20214;-87
2023/09/01 07:31:56;;;;;;;5.28;1.23;;;16.90;99.90;;;;;;4960995;29;20199;-86
2023/09/01 07:34:27;;;;;;;5.90;1.20;;;16.90;99.90;;;;;;4965638;28;20203;-89
2023/09/01 07:36:57;;;;;;;4.95;1.35;;;16.80;99.90;;;;;;4959499;28;20578;-88
2023/09/01 07:39:29;;;;;;;7.47;1.73;;;16.80;99.90;;;;;;4951805;29;20291;-90
2023/09/01 07:42:00;;;;;;;7.45;1.73;;;16.80;99.90;;;;;;4941437;28;20205;-90
2023/09/01 07:44:33;;;;;;;8.23;1.50;;;16.80;99.90;;;;;;4938595;29;20220;-88
2023/09/01 07:47:04;;;;;;;7.15;1.55;;;16.70;99.90;;;;;;4935726;29;20201;-88
2023/09/01 07:49:35;;;;;;;6.82;1.77;;;16.60;99.90;;;;;;4934611;29;20301;-88
2023/09/01 07:52:06;;;;;;;8.10;1.40;;;16.60;99.90;;;;;;4944612;29;20200;-85
2023/09/01 07:54:37;;;;;;;6.70;1.52;;;16.70;99.90;;;;;;4953781;28;20314;-87
2023/09/01 07:57:07;;;;;;;6.38;1.55;;;16.70;99.90;;;;;;4954287;29;20196;-86
2023/09/01 07:59:41;;;;;;;5.88;1.50;;;16.60;99.90;;;;;;4940632;29;20584;-88
2023/09/01 08:02:11;;;;;;;5.85;1.60;;;16.60;99.90;;;;;;4943385;29;20196;-86
2023/09/01 08:04:42;;;;;;;6.47;1.85;;;16.70;99.90;;;;;;4953901;29;20235;-87
2023/09/01 08:07:13;;;;;;;11.93;1.90;;;16.60;99.90;;;;;;4953961;29;20211;-88
2023/09/01 08:09:44;;;;;;;6.78;1.63;;;16.50;99.90;;;;;;4944918;29;20211;-87
2023/09/01 08:12:14;;;;;;;6.93;1.40;;;16.50;99.90;;;;;;4934245;29;20241;-87
2023/09/01 08:14:47;;;;;;;9.05;1.50;;;16.60;99.90;;;;;;4934160;29;20201;-87
2023/09/01 08:17:18;;;;;;;6.57;1.50;;;16.50;99.90;;;;;;4934222;29;20201;-87
2023/09/01 08:19:50;;;;;;;7.43;1.50;;;16.50;99.90;;;;;;4942218;29;20196;-87
2023/09/01 08:22:21;;;;;;;5.20;1.30;;;16.60;99.90;;;;;;4944420;28;20199;-88
2023/09/01 08:24:52;;;;;;;9.88;1.60;;;16.50;99.90;;;;;;4947305;29;20307;-88
2023/09/01 08:27:23;;;;;;;5.88;1.30;;;16.40;99.90;;;;;;4950962;29;20226;-88
2023/09/01 08:29:56;;;;;;;7.35;1.50;;;16.40;99.90;;;;;;4946151;29;20204;-88
2023/09/01 08:32:27;;;;;;;5.57;1.60;;;16.30;99.90;;;;;;4953184;29;20200;-86
2023/09/01 08:34:58;;;;;;;7.50;1.45;;;16.30;99.90;;;;;;4944053;28;20330;-82
2023/09/01 08:37:29;;;;;;;11.50;2.03;;;16.30;99.90;;;;;;4940526;29;20213;-89
2023/09/01 08:39:59;;;;;;;13.63;2.88;;;16.40;99.90;;;;;;4935097;29;20196;-89
2023/09/01 08:42:30;;;;;;;7.05;1.65;;;16.40;99.90;;;;;;4934256;29;20211;-88
2023/09/01 08:45:06;;;;;;;4.75;1.85;;;16.40;99.90;;;;;;4934025;28;20258;-90
2023/09/01 08:47:42;;;;;;;8.82;1.80;;;16.50;99.90;;;;;;4936171;28;20201;-90
2023/09/01 08:50:14;;;;;;;10.88;2.50;;;16.40;99.90;;;;;;4944933;29;20200;-89
2023/09/01 08:52:46;;;;;;;9.10;1.83;;;16.50;99.90;;;;;;4941372;29;20568;-89
2023/09/01 08:55:17;;;;;;;6.78;2.25;;;16.50;99.90;;;;;;4934707;29;20232;-89
2023/09/01 08:57:50;;;;;;;9.13;2.25;;;16.40;99.90;;;;;;4936817;29;20215;-90
2023/09/01 09:00:23;;;;;;;7.40;2.10;;;16.40;99.90;;;;;;4943058;29;20235;-89
2023/09/01 09:02:54;;;;;;;10.18;2.20;;;16.40;99.90;;;;;;4938725;28;20208;-89
2023/09/01 09:05:26;;;;;;;8.23;1.73;;;16.50;99.90;;;;;;4943637;28;20227;-90
2023/09/01 09:08:03;;;;;;;9.50;1.67;;;16.50;99.90;;;;;;4929173;28;20201;-89
2023/09/01 09:10:37;;;;;;;3.65;1.30;;;16.50;99.90;;;;;;4935737;28;20203;-91
2023/09/01 09:13:24;;;;;;;6.78;1.40;;;16.40;99.90;;;;;;4936978;28;20199;-90
2023/09/01 09:16:25;;;;;;;10.70;1.63;;;16.40;99.90;;;;;;4935944;28;20211;-89
2023/09/01 09:18:56;;;;;;;18.27;5.53;;;16.40;99.90;;;;;;4923820;28;20200;-89
2023/09/01 09:21:29;;;;;;;7.10;2.05;;;16.50;99.90;;;;;;4930186;28;20590;-89
2023/09/01 09:24:01;;;;;;;7.00;2.08;;;16.50;99.90;;;;;;4918949;29;20235;-89
2023/09/01 09:26:32;;;;;;;8.13;2.25;;;16.50;99.90;;;;;;4918963;28;20200;-89
2023/09/01 09:29:08;;;;;;;8.35;2.10;;;16.40;99.90;;;;;;4939793;28;20196;-88
2023/09/01 09:31:44;;;;;;;8.43;2.03;;;16.50;99.90;;;;;;4926778;28;20216;-88
2023/09/01 09:34:19;;;;;;;6.60;1.65;;;16.50;99.90;;;;;;4936338;28;20218;-89
2023/09/01 09:36:51;;;;;;;4.90;1.60;;;16.50;99.90;;;;;;4931029;28;20204;-89
2023/09/01 09:39:26;;;;;;;7.20;1.70;;;16.50;99.90;;;;;;4945190;28;20209;-89
2023/09/01 09:41:57;;;;;;;6.68;1.63;;;16.40;99.90;;;;;;4922314;28;20208;-90
2023/09/01 09:44:31;;;;;;;8.15;2.55;;;16.50;99.90;;;;;;4935874;29;20312;-90
2023/09/01 09:47:10;;;;;;;7.03;1.92;;;16.50;99.90;;;;;;4942119;29;20283;-91
2023/09/01 09:49:41;;;;;;;7.68;2.17;;;16.50;99.90;;;;;;4951775;29;20272;-91
2023/09/01 09:52:12;;;;;;;6.45;1.80;;;16.50;99.90;;;;;;4958014;29;20207;-91
2023/09/01 09:54:50;;;;;;;10.75;2.80;;;16.60;99.90;;;;;;4949292;28;20242;-90
2023/09/01 09:57:23;;;;;;;10.30;2.50;;;16.60;99.90;;;;;;4937604;29;20267;-89
2023/09/01 10:00:06;;;;;;;7.00;2.03;;;16.60;99.90;;;;;;4937556;29;20203;-91
2023/09/01 10:02:45;;;;;;;5.78;1.75;;;16.60;99.90;;;;;;4950566;29;20234;-90
2023/09/01 10:05:18;;;;;;;11.68;1.92;;;16.60;99.90;;;;;;4937616;29;20228;-90
2023/09/01 10:07:51;;;;;;;8.35;2.35;;;16.50;99.90;;;;;;4937531;29;20220;-91
2023/09/01 10:10:24;;;;;;;6.53;1.70;;;16.50;99.90;;;;;;4936177;29;20693;-90
2023/09/01 10:12:55;;;;;;;11.88;3.22;;;16.50;99.90;;;;;;4946973;29;20212;-89
2023/09/01 10:15:27;;;;;;;5.28;1.65;;;16.50;99.90;;;;;;4940948;29;20208;-90
2023/09/01 10:18:04;;;;;;;13.13;2.85;;;16.50;99.90;;;;;;4937429;29;20611;-90
2023/09/01 10:20:36;;;;;;;10.25;2.38;;;16.50;99.90;;;;;;4955270;29;20195;-93
2023/09/01 10:23:08;;;;;;;7.38;1.65;;;16.50;99.90;;;;;;4956665;29;20203;-90
2023/09/01 10:25:39;;;;;;;7.60;1.60;;;16.50;99.90;;;;;;4944786;29;20235;-91
2023/09/01 10:28:12;;;;;;;9.65;1.88;;;16.40;99.90;;;;;;4937942;29;20208;-92
2023/09/01 10:30:44;;;;;;;8.75;1.80;;;16.50;99.90;;;;;;4937612;29;20486;-92
2023/09/01 10:33:30;;;;;;;5.43;1.77;;;16.50;99.90;;;;;;4937389;29;20201;-90
2023/09/01 10:36:01;;;;;;;6.70;1.48;;;16.50;99.90;;;;;;4935668;29;20205;-91
2023/09/01 10:38:40;;;;;;;6.80;1.63;;;16.40;99.90;;;;;;4930384;29;20197;-90
2023/09/01 10:41:11;;;;;;;10.50;1.80;;;16.10;99.90;;;;;;4944119;29;20196;-90
2023/09/01 10:43:59;;;;;;;8.23;1.95;;;15.90;99.90;;;;;;4927996;29;20204;-89
2023/09/01 10:46:30;;;;;;;5.00;1.50;;;15.90;99.90;;;;;;4927812;28;20451;-90
2023/09/01 10:49:05;;;;;;;8.15;1.70;;;16.00;99.90;;;;;;4936681;28;20205;-91
2023/09/01 10:51:37;;;;;;;7.95;2.15;;;16.00;99.90;;;;;;4918542;28;20223;-91
2023/09/01 10:58:39;;;;;;;7.63;1.65;;;16.00;99.90;;;;;;4928832;28;20880;-89
2023/09/01 11:01:38;;;;;;;4.95;1.70;;;16.00;99.90;;;;;;4928113;28;20209;-89
2023/09/01 11:04:36;;;;;;;7.15;1.80;;;16.00;99.90;;;;;;4938238;28;20211;-90
2023/09/01 11:07:12;;;;;;;6.18;1.50;;;16.00;99.90;;;;;;4934389;28;20667;-91
2023/09/01 11:09:56;;;;;;;11.20;3.70;;;16.00;99.90;;;;;;4938256;28;20610;-90
2023/09/01 11:12:36;;;;;;;5.07;1.52;;;16.00;99.90;;;;;;4936657;29;20215;-90
2023/09/01 11:15:08;;;;;;;4.78;1.73;;;16.00;99.90;;;;;;4936340;29;20212;-90
2023/09/01 11:17:47;;;;;;;6.50;1.65;;;16.00;99.90;;;;;;4946878;29;20202;-89
2023/09/01 11:20:23;;;;;;;4.85;1.45;;;16.00;99.90;;;;;;4935566;29;20196;-91
2023/09/01 11:22:55;;;;;;;7.72;1.88;;;16.00;99.90;;;;;;4942223;28;20319;-90
2023/09/01 11:25:27;;;;;;;8.95;2.00;;;15.90;99.90;;;;;;4932738;28;20216;-89
2023/09/01 11:27:58;;;;;;;6.07;1.63;;;15.90;99.90;;;;;;4936335;28;20208;-90
2023/09/01 11:30:29;;;;;;;3.10;1.20;;;15.90;99.90;;;;;;4934160;28;20212;-90
2023/09/01 11:33:00;;;;;;;8.10;2.20;;;15.80;99.90;;;;;;4935703;28;20200;-90
2023/09/01 11:35:34;;;;;;;10.40;2.53;;;15.80;99.90;;;;;;4935317;28;20214;-91
2023/09/01 11:38:06;;;;;;;7.53;2.08;;;15.80;99.90;;;;;;4934468;28;20736;-91
2023/09/01 11:40:38;;;;;;;7.97;1.98;;;15.80;99.90;;;;;;4934045;28;20204;-89
2023/09/01 11:43:11;;;;;;;9.32;1.65;;;15.90;99.90;;;;;;4939573;28;20511;-90
2023/09/01 11:45:49;;;;;;;7.25;1.77;;;15.80;99.90;;;;;;4961398;28;20315;-90
2023/09/01 11:48:26;;;;;;;6.28;1.40;;;15.70;99.90;;;;;;4936245;29;20200;-90
2023/09/01 11:50:59;;;;;;;8.60;1.50;;;15.70;99.90;;;;;;4937380;29;20228;-90
2023/09/01 11:53:32;;;;;;;5.93;1.48;;;15.70;99.90;;;;;;4940661;29;20628;-90
2023/09/01 11:56:04;;;;;;;5.03;1.27;;;15.80;99.90;;;;;;4934548;29;20208;-90
2023/09/01 11:58:49;;;;;;;8.15;1.65;;;15.80;99.90;;;;;;4948969;29;20205;-92
2023/09/01 12:01:21;;;;;;;8.02;2.15;;;15.90;99.90;;;;;;4938711;29;20208;-91
2023/09/01 12:03:52;;;;;;;8.65;1.55;;;15.90;99.90;;;;;;4956441;29;20196;-91
2023/09/01 12:06:26;;;;;;;7.60;1.45;;;15.90;99.90;;;;;;4953318;29;20227;-91
2023/09/01 12:09:11;;;;;;;7.68;1.35;;;15.90;99.90;;;;;;4949543;29;20209;-91
2023/09/01 12:11:56;;;;;;;7.22;1.13;;;15.80;99.90;;;;;;4937677;29;20208;-90
2023/09/01 12:14:29;;;;;;;9.98;1.42;;;15.80;99.90;;;;;;4937201;29;20200;-90
2023/09/01 12:17:01;;;;;;;7.53;1.58;;;15.70;99.90;;;;;;4938985;29;20189;-90
2023/09/01 12:19:47;;;;;;;9.20;1.42;;;15.70;99.90;;;;;;4937851;29;20211;-91
2023/09/01 12:22:20;;;;;;;4.75;1.23;;;15.60;99.90;;;;;;4937572;29;20292;-90
2023/09/01 12:24:55;;;;;;;7.30;1.65;;;15.60;99.90;;;;;;4921141;29;20207;-91
2023/09/01 12:27:31;;;;;;;4.70;1.23;;;15.60;99.90;;;;;;4937879;29;20208;-92
2023/09/01 12:30:03;;;;;;;6.50;1.27;;;15.60;99.90;;;;;;4945529;29;20688;-90
2023/09/01 12:32:34;;;;;;;5.25;1.20;;;15.60;99.90;;;;;;4937196;29;20240;-90
2023/09/01 12:35:06;;;;;;;3.88;1.17;;;15.60;99.90;;;;;;4938950;29;20212;-89
2023/09/01 12:37:40;;;;;;;7.00;1.38;;;15.50;99.90;;;;;;4945151;29;20211;-90
2023/09/01 12:40:14;;;;;;;7.38;1.20;;;15.50;99.90;;;;;;4936454;29;20200;-90
2023/09/01 12:42:45;;;;;;;8.15;1.50;;;15.50;99.90;;;;;;4949969;28;20221;-89
2023/09/01 12:45:18;;;;;;;4.75;1.05;;;15.50;99.90;;;;;;4920634;28;20222;-90
2023/09/01 12:47:49;;;;;;;8.48;1.10;;;15.50;99.90;;;;;;4947380;28;20202;-90
2023/09/01 12:50:22;;;;;;;4.85;1.00;;;15.50;99.90;;;;;;4934991;28;20543;-90
2023/09/01 12:52:57;;;;;;;9.63;1.60;;;15.40;99.90;;;;;;4935787;28;20214;-90
2023/09/01 12:55:28;;;;;;;5.55;1.20;;;15.40;99.90;;;;;;4941089;28;20238;-90
2023/09/01 12:57:59;;;;;;;6.72;1.48;;;15.30;99.90;;;;;;4952030;28;20204;-92
2023/09/01 13:00:30;;;;;;;8.20;1.40;;;15.30;99.90;;;;;;4950140;28;20199;-91
2023/09/01 13:03:01;;;;;;;4.43;1.08;;;15.20;99.90;;;;;;4924434;28;20233;-92
2023/09/01 13:05:34;;;;;;;6.60;1.30;;;15.10;99.90;;;;;;4933708;28;20231;-93
2023/09/01 13:08:07;;;;;;;4.60;1.40;;;15.00;99.90;;;;;;4932047;28;20206;-91
2023/09/01 13:10:39;;;;;;;6.63;1.30;;;15.00;99.90;;;;;;4919513;28;20297;-93
2023/09/01 13:13:09;;;;;;;4.00;1.10;;;15.00;99.90;;;;;;4934030;28;20675;-91
2023/09/01 13:15:41;;;;;;;2.55;0.95;;;15.00;99.90;;;;;;4918288;28;20727;-91
2023/09/01 13:18:17;;;;;;;3.70;0.90;;;15.10;99.90;;;;;;4936082;28;20270;-91
2023/09/01 13:20:48;;;;;;;3.33;0.85;;;15.10;99.90;;;;;;4918407;28;20199;-91
2023/09/01 13:23:21;;;;;;;6.55;1.13;;;15.10;99.90;;;;;;4936190;28;20297;-90